Time;durP1;ratioP1;P1;durP2;ratioP2;P2;SDS_P1;SDS_P2;PMS_P1;PMS_P2;Temp;Humidity;BMP_temperature;BMP_pressure;BME280_temperature;BME280_humidity;BME280_pressure;Samples;Min_cycle;Max_cycle;Signal;HPM_P1;HPM_P2
2022/10/07 00:02:16;;;;;;;1.70;1.50;;;20.00;55.90;;;;;;5089065;28;45412;-76
2022/10/07 00:04:45;;;;;;;3.55;1.20;;;19.90;55.90;;;;;;5088627;28;45281;-76
2022/10/07 00:07:13;;;;;;;1.40;1.27;;;19.90;55.90;;;;;;5088645;28;45384;-76
2022/10/07 00:09:42;;;;;;;1.65;1.30;;;19.90;56.50;;;;;;5088770;28;45209;-76
2022/10/07 00:12:09;;;;;;;2.65;1.30;;;19.90;56.00;;;;;;5088905;28;45275;-76
2022/10/07 00:14:36;;;;;;;1.40;1.30;;;19.90;55.90;;;;;;5088456;28;46600;-77
2022/10/07 00:17:03;;;;;;;1.38;1.20;;;19.90;55.90;;;;;;5088436;28;45240;-76
2022/10/07 00:19:33;;;;;;;1.40;1.30;;;19.90;55.90;;;;;;5088728;28;45259;-76
2022/10/07 00:22:00;;;;;;;2.33;1.35;;;19.90;56.00;;;;;;5088672;28;45283;-76
2022/10/07 00:24:27;;;;;;;1.30;1.20;;;19.90;56.00;;;;;;5088234;28;46547;-76
2022/10/07 00:26:55;;;;;;;1.92;1.20;;;19.90;56.00;;;;;;5088449;28;45278;-74
2022/10/07 00:29:22;;;;;;;1.58;1.30;;;19.90;56.00;;;;;;5088357;28;45221;-76
2022/10/07 00:31:49;;;;;;;1.45;1.35;;;19.90;56.00;;;;;;5088267;28;45431;-75
2022/10/07 00:34:16;;;;;;;1.98;1.27;;;19.80;56.50;;;;;;5087394;28;46587;-75
2022/10/07 00:36:43;;;;;;;1.50;1.27;;;19.80;55.90;;;;;;5087695;27;45292;-75
2022/10/07 00:39:11;;;;;;;1.80;1.30;;;19.80;56.00;;;;;;5088279;28;45294;-75
2022/10/07 00:41:39;;;;;;;1.10;1.08;;;19.80;56.00;;;;;;5088262;28;45190;-76
2022/10/07 00:44:32;;;;;;;1.40;1.15;;;19.80;56.00;;;;;;5088026;28;45599;-74
2022/10/07 00:46:59;;;;;;;1.17;1.02;;;19.80;56.00;;;;;;5087973;28;45423;-75
2022/10/07 00:49:27;;;;;;;1.23;1.13;;;19.80;56.00;;;;;;5088099;28;45297;-76
2022/10/07 00:51:53;;;;;;;1.27;1.17;;;19.80;56.00;;;;;;5088226;28;45203;-75
2022/10/07 00:54:20;;;;;;;1.30;1.20;;;19.80;56.00;;;;;;5087835;28;45230;-77
2022/10/07 00:56:48;;;;;;;2.83;1.27;;;19.80;56.40;;;;;;5087843;28;45292;-74
2022/10/07 00:59:15;;;;;;;1.60;1.30;;;19.80;56.00;;;;;;5088003;28;45308;-77
2022/10/07 01:01:43;;;;;;;2.17;1.20;;;19.80;56.00;;;;;;5087957;28;45479;-75
2022/10/07 01:04:10;;;;;;;1.70;1.20;;;19.80;56.00;;;;;;5087683;28;45421;-75
2022/10/07 01:06:37;;;;;;;1.60;1.30;;;19.70;56.00;;;;;;5087850;28;45277;-75
2022/10/07 01:09:04;;;;;;;1.30;1.13;;;19.70;56.00;;;;;;5087746;28;45287;-77
2022/10/07 01:11:37;;;;;;;1.83;1.35;;;19.70;56.00;;;;;;5087983;28;45338;-75
2022/10/07 01:14:08;;;;;;;2.28;1.50;;;19.70;56.00;;;;;;5090406;28;46382;-76
2022/10/07 01:16:39;;;;;;;2.53;1.33;;;19.70;56.00;;;;;;5087547;28;45216;-76
2022/10/07 01:19:17;;;;;;;1.80;1.17;;;19.70;56.00;;;;;;5087821;28;45229;-74
2022/10/07 01:21:47;;;;;;;1.40;1.27;;;19.70;56.00;;;;;;5087753;28;45396;-75
2022/10/07 01:24:22;;;;;;;2.35;1.40;;;19.70;56.00;;;;;;5087368;28;45324;-74
2022/10/07 01:26:54;;;;;;;2.25;1.20;;;19.70;56.00;;;;;;5087456;28;45262;-74
2022/10/07 01:29:22;;;;;;;1.50;1.30;;;19.70;56.00;;;;;;5087396;28;45284;-75
2022/10/07 01:31:51;;;;;;;1.70;1.58;;;19.70;56.00;;;;;;5087786;28;45133;-76
2022/10/07 01:34:18;;;;;;;1.67;1.48;;;19.70;56.00;;;;;;5087279;28;45363;-77
2022/10/07 01:36:51;;;;;;;1.60;1.45;;;19.60;55.90;;;;;;5087278;28;45255;-77
2022/10/07 01:39:19;;;;;;;1.63;1.40;;;19.60;56.00;;;;;;5087182;28;45332;-75
2022/10/07 01:41:46;;;;;;;1.58;1.38;;;19.60;56.00;;;;;;5086525;28;45491;-75
2022/10/07 01:44:14;;;;;;;1.45;1.35;;;19.60;56.00;;;;;;5087089;28;46328;-75
2022/10/07 01:46:41;;;;;;;1.85;1.60;;;19.60;56.00;;;;;;5086994;28;45391;-75
2022/10/07 01:49:08;;;;;;;1.75;1.38;;;19.60;56.00;;;;;;5086442;28;45348;-76
2022/10/07 01:51:36;;;;;;;2.25;1.58;;;19.60;56.00;;;;;;5087224;28;45370;-76
2022/10/07 01:54:08;;;;;;;2.92;1.52;;;19.60;56.00;;;;;;5086081;28;46590;-74
2022/10/07 01:56:42;;;;;;;2.15;1.52;;;19.60;56.00;;;;;;5086136;28;45276;-76
2022/10/07 01:59:38;;;;;;;1.30;1.20;;;19.50;55.90;;;;;;5086168;28;45330;-77
2022/10/07 02:02:09;;;;;;;2.70;1.60;;;19.50;56.60;;;;;;5086260;28;45492;-75
2022/10/07 02:04:43;;;;;;;1.92;1.38;;;19.50;56.00;;;;;;5085922;28;45323;-76
2022/10/07 02:07:17;;;;;;;2.25;1.58;;;19.50;56.00;;;;;;5086023;28;45143;-76
2022/10/07 02:09:45;;;;;;;2.42;1.52;;;19.50;56.00;;;;;;5085980;28;45197;-75
2022/10/07 02:12:15;;;;;;;1.77;1.50;;;19.50;56.00;;;;;;5086214;28;45452;-74
2022/10/07 02:14:48;;;;;;;2.03;1.40;;;19.50;56.00;;;;;;5085913;28;47301;-74
2022/10/07 02:17:17;;;;;;;1.48;1.25;;;19.50;56.00;;;;;;5085904;28;45361;-76
2022/10/07 02:19:46;;;;;;;2.50;1.65;;;19.50;56.00;;;;;;5086001;28;45178;-75
2022/10/07 02:22:13;;;;;;;1.52;1.40;;;19.50;56.00;;;;;;5086103;28;45273;-74
2022/10/07 02:24:40;;;;;;;2.42;1.60;;;19.50;56.00;;;;;;5085940;28;47398;-75
2022/10/07 02:27:09;;;;;;;2.33;1.50;;;19.50;56.00;;;;;;5085694;28;45196;-75
2022/10/07 02:29:37;;;;;;;2.72;1.48;;;19.50;56.00;;;;;;5085720;28;45297;-76
2022/10/07 02:32:06;;;;;;;1.80;1.35;;;19.50;56.60;;;;;;5086014;28;45451;-75
2022/10/07 02:34:33;;;;;;;2.03;1.63;;;19.40;56.00;;;;;;5085608;28;46364;-75
2022/10/07 02:37:02;;;;;;;1.50;1.40;;;19.40;56.00;;;;;;5085611;28;45190;-75
2022/10/07 02:39:29;;;;;;;1.77;1.50;;;19.40;56.00;;;;;;5085815;28;45316;-75
2022/10/07 02:41:59;;;;;;;1.77;1.50;;;19.40;56.00;;;;;;5085513;28;45218;-75
2022/10/07 02:44:29;;;;;;;2.58;1.60;;;19.40;56.00;;;;;;5085528;28;45403;-75
2022/10/07 02:46:58;;;;;;;1.60;1.40;;;19.40;56.00;;;;;;5085463;28;45332;-76
2022/10/07 02:49:27;;;;;;;1.80;1.52;;;19.40;56.60;;;;;;5085502;28;45196;-76
2022/10/07 02:51:56;;;;;;;2.45;1.67;;;19.40;56.00;;;;;;5085723;28;45278;-75
2022/10/07 02:54:25;;;;;;;1.83;1.50;;;19.40;56.00;;;;;;5085296;28;47113;-74
2022/10/07 02:56:52;;;;;;;2.03;1.50;;;19.40;56.00;;;;;;5085302;28;45362;-74
2022/10/07 02:59:19;;;;;;;2.53;1.88;;;19.40;56.00;;;;;;5087053;28;45340;-75
2022/10/07 03:01:48;;;;;;;2.33;1.80;;;19.40;56.00;;;;;;5089415;28;45262;-74
2022/10/07 03:04:15;;;;;;;2.20;1.75;;;19.30;56.00;;;;;;5088751;28;46554;-75
2022/10/07 03:06:43;;;;;;;3.00;1.95;;;19.30;55.90;;;;;;5089008;28;45643;-75
2022/10/07 03:09:10;;;;;;;1.92;1.73;;;19.40;56.00;;;;;;5088791;28;45431;-77
2022/10/07 03:11:37;;;;;;;2.97;2.05;;;19.30;56.00;;;;;;5089041;28;45248;-75
2022/10/07 03:14:04;;;;;;;3.38;1.90;;;19.30;56.00;;;;;;5088786;28;47611;-76
2022/10/07 03:16:31;;;;;;;1.90;1.60;;;19.30;56.00;;;;;;5088650;28;45232;-75
2022/10/07 03:18:58;;;;;;;3.05;1.80;;;19.30;56.00;;;;;;5088739;28;45323;-76
2022/10/07 03:21:25;;;;;;;2.00;1.70;;;19.20;56.00;;;;;;5088784;28;45501;-75
2022/10/07 03:23:54;;;;;;;1.90;1.70;;;19.20;56.00;;;;;;5088502;28;46685;-77
2022/10/07 03:26:21;;;;;;;2.30;1.58;;;19.20;56.00;;;;;;5085859;28;45201;-75
2022/10/07 03:28:48;;;;;;;1.67;1.23;;;19.20;56.00;;;;;;5088546;28;45304;-76
2022/10/07 03:31:15;;;;;;;2.55;2.05;;;19.20;56.00;;;;;;5088499;28;45491;-75
2022/10/07 03:33:42;;;;;;;2.95;1.52;;;19.20;56.00;;;;;;5088350;28;45470;-75
2022/10/07 03:36:08;;;;;;;2.85;1.90;;;19.20;56.00;;;;;;5088416;28;45180;-76
2022/10/07 03:38:35;;;;;;;2.30;1.90;;;19.20;56.00;;;;;;5088387;28;45212;-76
2022/10/07 03:41:05;;;;;;;2.63;1.60;;;19.20;56.00;;;;;;5088515;28;45308;-75
2022/10/07 03:43:32;;;;;;;2.67;1.98;;;19.20;56.00;;;;;;5088507;28;45333;-74
2022/10/07 03:46:01;;;;;;;2.58;1.52;;;19.20;56.10;;;;;;5088186;28;45343;-76
2022/10/07 03:48:28;;;;;;;2.22;1.80;;;19.20;56.10;;;;;;5088337;28;45238;-76
2022/10/07 03:50:56;;;;;;;4.70;1.65;;;19.20;56.10;;;;;;5088280;28;45323;-75
2022/10/07 03:53:23;;;;;;;2.63;1.73;;;19.20;56.00;;;;;;5088152;28;45267;-75
2022/10/07 03:55:50;;;;;;;2.35;1.75;;;19.20;56.10;;;;;;5088075;28;45244;-76
2022/10/07 03:58:18;;;;;;;2.22;1.90;;;19.20;56.10;;;;;;5088131;28;45307;-75
2022/10/07 04:00:45;;;;;;;2.38;1.63;;;19.20;56.10;;;;;;5088314;28;45356;-75
2022/10/07 04:03:13;;;;;;;2.35;1.80;;;19.10;56.10;;;;;;5087835;28;45310;-75
2022/10/07 04:05:39;;;;;;;2.35;1.80;;;19.10;56.10;;;;;;5087981;28;45204;-75
2022/10/07 04:08:06;;;;;;;2.20;1.50;;;19.10;56.00;;;;;;5088013;28;45198;-75
2022/10/07 04:10:33;;;;;;;2.05;1.77;;;19.10;56.00;;;;;;5087077;27;45373;-76
2022/10/07 04:13:00;;;;;;;2.55;1.70;;;19.10;56.10;;;;;;5087790;28;47340;-75
2022/10/07 04:15:28;;;;;;;2.85;1.90;;;19.10;56.10;;;;;;5087738;28;45212;-76
2022/10/07 04:17:57;;;;;;;2.15;1.58;;;19.10;56.10;;;;;;5087889;28;45210;-75
2022/10/07 04:20:24;;;;;;;3.53;1.92;;;19.10;56.10;;;;;;5087991;28;45349;-75
2022/10/07 04:22:50;;;;;;;2.10;1.65;;;19.10;56.10;;;;;;5087803;28;47731;-75
2022/10/07 04:25:37;;;;;;;2.38;1.63;;;19.10;56.60;;;;;;5087574;28;45191;-74
2022/10/07 04:28:05;;;;;;;2.47;1.73;;;19.00;56.00;;;;;;5087663;28;45245;-75
2022/10/07 04:30:34;;;;;;;2.85;1.67;;;19.00;56.00;;;;;;5087672;28;45190;-75
2022/10/07 04:33:01;;;;;;;2.92;1.85;;;19.00;56.00;;;;;;5086874;28;46385;-75
2022/10/07 04:35:28;;;;;;;3.30;1.88;;;19.00;56.00;;;;;;5087253;28;45255;-75
2022/10/07 04:37:55;;;;;;;1.92;1.45;;;19.00;56.10;;;;;;5087531;28;45193;-75
2022/10/07 04:40:22;;;;;;;2.17;1.73;;;18.90;56.10;;;;;;5087664;28;45280;-75
2022/10/07 04:45:35;;;;;;;1.73;1.63;;;19.00;56.10;;;;;;5087569;28;45380;-75
2022/10/07 04:48:02;;;;;;;2.35;1.70;;;18.90;56.10;;;;;;5087316;28;45324;-75
2022/10/07 04:50:29;;;;;;;2.15;1.80;;;18.90;56.10;;;;;;5087440;28;45223;-75
2022/10/07 04:52:56;;;;;;;2.17;1.60;;;18.90;56.10;;;;;;5087058;28;45233;-75
2022/10/07 04:55:25;;;;;;;1.67;1.58;;;18.90;56.10;;;;;;5087334;28;45315;-75
2022/10/07 04:57:52;;;;;;;2.08;1.75;;;18.90;56.10;;;;;;5087173;28;45384;-75
2022/10/07 05:00:19;;;;;;;3.53;1.70;;;18.90;56.10;;;;;;5087331;28;45400;-75
2022/10/07 05:02:49;;;;;;;2.00;1.50;;;18.90;56.10;;;;;;5084237;28;45167;-74
2022/10/07 05:05:16;;;;;;;2.13;1.73;;;18.90;56.10;;;;;;5084455;28;45310;-74
2022/10/07 05:07:43;;;;;;;1.80;1.67;;;18.90;56.10;;;;;;5087118;28;45186;-74
2022/10/07 05:10:11;;;;;;;1.88;1.70;;;18.90;56.10;;;;;;5087129;28;45157;-75
2022/10/07 05:12:40;;;;;;;1.67;1.42;;;18.90;56.10;;;;;;5086712;28;45277;-75
2022/10/07 05:15:07;;;;;;;2.58;1.92;;;18.90;56.10;;;;;;5086761;28;45435;-75
2022/10/07 05:17:34;;;;;;;2.35;1.83;;;18.90;56.10;;;;;;5086869;28;45296;-75
2022/10/07 05:20:03;;;;;;;2.15;1.70;;;18.80;56.00;;;;;;5087004;28;45193;-74
2022/10/07 05:22:31;;;;;;;2.80;1.63;;;18.80;56.10;;;;;;5086701;27;45629;-75
2022/10/07 05:24:58;;;;;;;2.13;1.52;;;18.80;56.10;;;;;;5086713;28;45255;-75
2022/10/07 05:27:25;;;;;;;2.42;1.85;;;18.80;56.10;;;;;;5086760;28;45196;-74
2022/10/07 05:29:51;;;;;;;2.72;1.80;;;18.80;56.10;;;;;;5086791;28;45189;-74
2022/10/07 05:32:19;;;;;;;2.20;1.60;;;18.80;56.70;;;;;;5086349;28;46504;-74
2022/10/07 05:34:45;;;;;;;2.08;1.70;;;18.80;56.10;;;;;;5086559;28;45466;-75
2022/10/07 05:37:14;;;;;;;1.58;1.42;;;18.80;56.70;;;;;;5083829;28;45414;-75
2022/10/07 05:39:41;;;;;;;2.05;1.55;;;18.80;56.70;;;;;;5086724;28;45238;-74
2022/10/07 05:42:08;;;;;;;2.80;1.90;;;18.80;56.70;;;;;;5085913;28;45849;-74
2022/10/07 05:44:36;;;;;;;2.08;1.50;;;18.80;56.00;;;;;;5086361;28;45336;-74
2022/10/07 05:47:03;;;;;;;1.92;1.40;;;18.80;56.00;;;;;;5086577;28;45245;-75
2022/10/07 05:49:30;;;;;;;2.70;1.95;;;18.80;56.00;;;;;;5086514;28;45416;-74
2022/10/07 05:51:57;;;;;;;1.95;1.50;;;18.70;56.60;;;;;;5085984;28;46448;-74
2022/10/07 05:54:33;;;;;;;1.60;1.50;;;18.70;56.70;;;;;;5068236;28;45316;-74
2022/10/07 05:57:00;;;;;;;2.75;1.65;;;18.70;56.00;;;;;;5086501;28;45367;-75
2022/10/07 05:59:27;;;;;;;2.03;1.83;;;18.70;56.00;;;;;;5086565;28;45305;-74
2022/10/07 06:01:59;;;;;;;1.40;1.30;;;18.70;56.00;;;;;;5085928;28;45203;-74
2022/10/07 06:04:26;;;;;;;2.42;1.67;;;18.70;56.00;;;;;;5086092;28;45294;-77
2022/10/07 06:06:53;;;;;;;2.42;1.92;;;18.70;56.00;;;;;;5086206;28;45170;-74
2022/10/07 06:14:50;;;;;;;2.42;1.75;;;18.70;56.00;;;;;;5083503;28;45187;-74
2022/10/07 06:17:17;;;;;;;3.55;1.90;;;18.60;55.90;;;;;;5085976;28;45205;-75
2022/10/07 06:19:44;;;;;;;2.00;1.48;;;18.70;56.10;;;;;;5086135;28;45291;-74
2022/10/07 06:22:11;;;;;;;2.33;2.00;;;18.60;55.90;;;;;;5085881;28;46585;-74
2022/10/07 06:24:44;;;;;;;1.83;1.63;;;18.70;55.90;;;;;;5085830;28;45276;-74
2022/10/07 06:27:12;;;;;;;1.88;1.73;;;18.70;56.00;;;;;;5086216;28;45414;-74
2022/10/07 06:29:39;;;;;;;2.70;1.83;;;18.60;55.90;;;;;;5086129;28;45265;-74
2022/10/07 06:32:06;;;;;;;2.47;1.88;;;18.60;55.90;;;;;;5085482;28;46626;-74
2022/10/07 06:34:33;;;;;;;2.22;2.03;;;18.60;55.90;;;;;;5087646;27;45201;-74
2022/10/07 06:37:00;;;;;;;2.08;1.90;;;18.60;55.90;;;;;;5089299;28;45350;-74
2022/10/07 06:39:26;;;;;;;2.10;1.90;;;18.60;56.00;;;;;;5089696;28;45452;-75
2022/10/07 06:41:55;;;;;;;2.17;1.98;;;18.60;55.90;;;;;;5088990;28;46408;-75
2022/10/07 06:44:23;;;;;;;3.03;1.92;;;18.60;55.90;;;;;;5089320;28;45166;-74
2022/10/07 06:46:50;;;;;;;2.40;2.13;;;18.60;56.00;;;;;;5089310;28;45324;-74
2022/10/07 06:49:17;;;;;;;1.85;1.70;;;18.60;56.00;;;;;;5089552;28;45276;-74
2022/10/07 06:51:45;;;;;;;2.88;1.88;;;18.60;56.00;;;;;;5089032;28;46683;-74
2022/10/07 06:54:12;;;;;;;2.85;2.10;;;18.60;56.00;;;;;;5089125;28;45378;-74
2022/10/07 06:56:39;;;;;;;2.85;2.33;;;18.60;56.00;;;;;;5089242;28;45292;-74
2022/10/07 06:59:06;;;;;;;1.95;1.75;;;18.60;56.60;;;;;;5089376;28;45320;-74
2022/10/07 07:01:34;;;;;;;2.38;1.75;;;18.60;56.00;;;;;;5088992;28;45308;-75
2022/10/07 07:04:02;;;;;;;2.95;2.20;;;18.50;56.00;;;;;;5088945;28;45301;-74
2022/10/07 07:06:29;;;;;;;2.47;2.00;;;18.50;56.00;;;;;;5089161;28;45447;-74
2022/10/07 07:09:04;;;;;;;3.22;1.65;;;18.50;56.00;;;;;;5089259;28;45288;-75
2022/10/07 07:11:42;;;;;;;2.38;2.00;;;18.50;56.10;;;;;;5088739;28;45503;-75
2022/10/07 07:14:10;;;;;;;2.10;1.88;;;18.50;56.00;;;;;;5089039;28;45328;-74
2022/10/07 07:16:38;;;;;;;2.65;2.28;;;18.60;56.10;;;;;;5089604;28;45222;-74
2022/10/07 07:19:07;;;;;;;2.20;1.92;;;18.60;56.10;;;;;;5089284;28;45496;-74
2022/10/07 07:21:34;;;;;;;2.33;2.03;;;18.50;56.00;;;;;;5089182;28;45180;-75
2022/10/07 07:24:01;;;;;;;2.35;1.90;;;18.50;56.00;;;;;;5089152;28;45201;-75
2022/10/07 07:26:28;;;;;;;3.45;2.28;;;18.50;56.10;;;;;;5089208;28;45192;-74
2022/10/07 07:28:57;;;;;;;2.42;1.85;;;18.60;56.10;;;;;;5089305;28;45272;-74
2022/10/07 07:31:24;;;;;;;4.18;2.08;;;18.60;56.10;;;;;;5088915;28;46601;-75
2022/10/07 07:33:52;;;;;;;3.22;2.17;;;18.60;56.10;;;;;;5088560;28;45213;-74
2022/10/07 07:36:21;;;;;;;2.10;1.90;;;18.60;56.10;;;;;;5088515;28;45405;-74
2022/10/07 07:38:51;;;;;;;2.72;1.77;;;18.60;56.10;;;;;;5088790;28;45442;-74
2022/10/07 07:41:18;;;;;;;2.50;2.08;;;18.60;56.20;;;;;;5088726;28;45230;-74
2022/10/07 07:43:49;;;;;;;2.83;1.85;;;18.60;56.20;;;;;;5088442;28;45343;-74
2022/10/07 07:46:16;;;;;;;2.05;1.80;;;18.60;56.70;;;;;;5087396;28;45238;-74
2022/10/07 07:48:43;;;;;;;2.28;2.00;;;18.60;56.10;;;;;;5088652;28;45204;-74
2022/10/07 07:51:12;;;;;;;2.30;2.10;;;18.60;56.10;;;;;;5088328;28;45245;-74
2022/10/07 07:53:39;;;;;;;3.30;1.98;;;18.60;56.10;;;;;;5089154;28;45253;-73
2022/10/07 07:56:06;;;;;;;3.88;2.20;;;18.70;56.10;;;;;;5089332;28;45143;-74
2022/10/07 07:58:33;;;;;;;3.33;2.17;;;18.70;56.10;;;;;;5089297;28;45413;-74
2022/10/07 08:01:00;;;;;;;2.55;1.80;;;18.70;56.10;;;;;;5089051;28;47466;-74
2022/10/07 08:03:30;;;;;;;2.53;2.15;;;18.70;56.00;;;;;;5089186;28;45294;-74
2022/10/07 08:05:59;;;;;;;1.85;1.75;;;18.70;56.10;;;;;;5089285;28;45181;-73
2022/10/07 08:08:27;;;;;;;2.33;1.88;;;18.70;56.10;;;;;;5086570;28;45331;-73
2022/10/07 08:10:54;;;;;;;2.03;1.60;;;18.70;56.10;;;;;;5088720;28;45432;-72
2022/10/07 08:13:21;;;;;;;2.55;1.92;;;18.70;56.10;;;;;;5088026;28;45181;-73
2022/10/07 08:15:48;;;;;;;2.65;2.10;;;18.80;56.20;;;;;;5086328;28;45268;-73
2022/10/07 08:18:16;;;;;;;2.30;1.83;;;18.70;56.10;;;;;;5089203;28;45272;-74
2022/10/07 08:20:43;;;;;;;2.55;1.92;;;18.80;56.20;;;;;;5088559;28;45367;-74
2022/10/07 08:23:10;;;;;;;3.13;2.08;;;18.80;56.20;;;;;;5088440;28;45230;-74
2022/10/07 08:25:38;;;;;;;2.45;1.90;;;18.80;56.20;;;;;;5088646;28;45188;-74
2022/10/07 08:28:05;;;;;;;2.58;1.98;;;18.80;56.20;;;;;;5088782;28;45354;-74
2022/10/07 08:30:32;;;;;;;2.38;1.80;;;18.80;56.20;;;;;;5088338;28;45348;-74
2022/10/07 08:32:59;;;;;;;2.10;1.80;;;18.80;56.20;;;;;;5088545;28;45376;-74
2022/10/07 08:35:26;;;;;;;2.92;1.90;;;18.80;56.30;;;;;;5088448;28;45193;-74
2022/10/07 08:37:53;;;;;;;2.00;1.80;;;18.80;56.30;;;;;;5088796;28;45210;-74
2022/10/07 08:40:19;;;;;;;2.85;2.10;;;18.80;56.30;;;;;;5088392;28;46351;-74
2022/10/07 08:42:48;;;;;;;2.70;2.10;;;18.80;56.30;;;;;;5087963;28;45356;-74
2022/10/07 08:45:19;;;;;;;2.60;2.00;;;18.90;56.40;;;;;;5088636;28;45241;-73
2022/10/07 08:47:45;;;;;;;1.83;1.73;;;18.90;56.40;;;;;;5085860;27;45347;-74
2022/10/07 08:50:14;;;;;;;2.47;1.63;;;18.90;56.40;;;;;;5087316;28;46766;-73
2022/10/07 08:52:47;;;;;;;1.60;1.50;;;18.90;56.30;;;;;;5087766;28;45257;-74
2022/10/07 08:55:23;;;;;;;1.70;1.60;;;18.90;56.30;;;;;;5088358;28;45292;-73
2022/10/07 08:58:03;;;;;;;2.08;1.75;;;18.90;56.30;;;;;;5087916;28;45329;-74
2022/10/07 09:00:33;;;;;;;2.90;2.03;;;19.00;56.30;;;;;;5087696;28;46682;-74
2022/10/07 09:03:06;;;;;;;3.45;1.80;;;19.00;56.30;;;;;;5087797;28;45312;-74
2022/10/07 09:05:34;;;;;;;2.08;1.88;;;19.00;56.20;;;;;;5087859;28;45408;-73
2022/10/07 09:08:02;;;;;;;2.28;1.80;;;19.00;56.20;;;;;;5087912;28;45312;-73
2022/10/07 09:10:31;;;;;;;2.03;1.83;;;19.10;56.20;;;;;;5086855;28;45269;-75
2022/10/07 09:13:01;;;;;;;2.10;1.90;;;19.10;56.20;;;;;;5087564;28;45394;-76
2022/10/07 09:15:34;;;;;;;2.53;2.00;;;19.10;56.20;;;;;;5087799;28;45194;-75
2022/10/07 09:18:03;;;;;;;1.88;1.63;;;19.20;56.20;;;;;;5088049;28;45145;-75
2022/10/07 09:20:33;;;;;;;1.60;1.50;;;19.20;56.80;;;;;;5087661;28;46363;-75
2022/10/07 09:23:00;;;;;;;1.90;1.70;;;19.20;56.20;;;;;;5087503;28;45369;-75
2022/10/07 09:25:28;;;;;;;1.95;1.48;;;19.20;56.20;;;;;;5087497;28;45273;-75
2022/10/07 09:27:55;;;;;;;2.20;1.75;;;19.20;56.20;;;;;;5087932;28;45537;-75
2022/10/07 09:30:24;;;;;;;2.05;1.77;;;19.20;56.10;;;;;;5087387;28;45332;-75
2022/10/07 09:32:53;;;;;;;2.20;1.88;;;19.30;56.20;;;;;;5087460;28;45199;-75
2022/10/07 09:35:21;;;;;;;2.10;1.67;;;19.30;56.20;;;;;;5087469;28;45105;-75
2022/10/07 09:37:55;;;;;;;2.60;1.77;;;19.30;56.20;;;;;;5088103;28;45495;-74
2022/10/07 09:40:30;;;;;;;2.33;1.70;;;19.30;56.20;;;;;;5087405;28;45300;-75
2022/10/07 09:42:57;;;;;;;2.58;1.42;;;19.40;56.20;;;;;;5087631;28;45371;-75
2022/10/07 09:45:26;;;;;;;2.05;1.65;;;19.40;56.20;;;;;;5087688;28;45280;-75
2022/10/07 09:47:54;;;;;;;1.90;1.70;;;19.40;56.20;;;;;;5087726;28;45186;-75
2022/10/07 09:50:31;;;;;;;1.95;1.75;;;19.50;56.20;;;;;;5087875;28;47570;-76
2022/10/07 09:52:58;;;;;;;2.03;1.50;;;19.50;56.20;;;;;;5087300;28;45315;-75
2022/10/07 09:55:36;;;;;;;1.88;1.70;;;19.50;56.20;;;;;;5087283;28;45307;-76
2022/10/07 09:58:05;;;;;;;2.03;1.67;;;19.50;56.10;;;;;;5087585;28;45628;-76
2022/10/07 10:00:36;;;;;;;2.25;1.60;;;19.50;56.10;;;;;;5086968;28;46394;-75
2022/10/07 10:03:04;;;;;;;3.53;1.67;;;19.60;56.20;;;;;;5086959;28;45198;-77
2022/10/07 10:05:32;;;;;;;2.05;1.85;;;19.60;56.10;;;;;;5087319;28;45256;-75
2022/10/07 10:08:00;;;;;;;3.53;1.98;;;19.70;56.20;;;;;;5086991;27;45395;-75
2022/10/07 10:10:28;;;;;;;2.60;1.75;;;19.70;56.10;;;;;;5086442;28;45227;-75
2022/10/07 10:12:56;;;;;;;2.88;1.70;;;19.70;56.10;;;;;;5086632;28;45267;-73
2022/10/07 10:15:45;;;;;;;1.73;1.40;;;19.80;56.20;;;;;;5086405;28;45276;-75
2022/10/07 10:18:31;;;;;;;2.47;1.63;;;19.80;56.30;;;;;;5081154;28;45192;-74
2022/10/07 10:21:02;;;;;;;2.58;1.77;;;19.80;56.20;;;;;;5085928;28;46474;-76
2022/10/07 10:23:35;;;;;;;2.90;1.50;;;19.80;56.40;;;;;;5086833;28;45263;-74
2022/10/07 10:26:27;;;;;;;1.70;1.35;;;19.90;56.30;;;;;;5086872;28;45308;-75
2022/10/07 10:29:03;;;;;;;2.25;1.55;;;19.90;56.40;;;;;;5087225;28;45272;-75
2022/10/07 10:31:35;;;;;;;3.78;1.73;;;19.90;56.30;;;;;;5086637;28;46359;-74
2022/10/07 10:34:04;;;;;;;1.58;1.48;;;20.00;56.30;;;;;;5086797;28;45184;-74
2022/10/07 10:36:31;;;;;;;1.83;1.40;;;20.00;56.60;;;;;;5087024;28;45246;-76
2022/10/07 10:39:01;;;;;;;2.00;1.48;;;20.00;56.40;;;;;;5086733;28;45283;-75
2022/10/07 10:41:31;;;;;;;3.10;1.92;;;20.00;56.40;;;;;;5085868;28;46658;-75
2022/10/07 10:44:19;;;;;;;2.28;1.60;;;20.10;56.20;;;;;;5083061;28;45386;-76
2022/10/07 10:46:50;;;;;;;2.35;1.40;;;20.20;56.30;;;;;;5073185;28;45298;-75
2022/10/07 10:49:24;;;;;;;2.95;1.60;;;20.20;56.20;;;;;;5086716;28;45434;-74
2022/10/07 10:52:21;;;;;;;2.08;1.52;;;20.30;56.20;;;;;;5085561;28;45440;-74
2022/10/07 10:54:55;;;;;;;1.77;1.60;;;20.40;55.90;;;;;;5086463;28;45329;-77
2022/10/07 10:57:24;;;;;;;1.58;1.45;;;20.40;55.90;;;;;;5086635;28;45225;-75
2022/10/07 11:00:03;;;;;;;2.22;1.52;;;20.50;55.70;;;;;;5086785;28;45316;-76
2022/10/07 11:03:05;;;;;;;2.47;1.70;;;20.50;55.60;;;;;;5086337;28;46348;-77
2022/10/07 11:05:33;;;;;;;1.30;1.20;;;20.60;55.30;;;;;;5086231;28;45434;-77
2022/10/07 11:08:02;;;;;;;1.92;1.58;;;20.70;55.20;;;;;;5086446;28;45233;-76
2022/10/07 11:10:32;;;;;;;1.58;1.48;;;20.80;54.80;;;;;;5086381;28;45479;-75
2022/10/07 11:13:03;;;;;;;1.63;1.42;;;20.80;54.70;;;;;;5086452;28;46582;-75
2022/10/07 11:15:32;;;;;;;1.75;1.42;;;20.90;54.40;;;;;;5085992;28;45299;-76
2022/10/07 11:18:01;;;;;;;1.52;1.42;;;21.00;54.30;;;;;;5086258;28;45246;-76
2022/10/07 11:20:30;;;;;;;1.33;1.23;;;21.00;54.30;;;;;;5088096;27;45395;-76
2022/10/07 11:23:00;;;;;;;1.83;1.35;;;21.10;54.30;;;;;;5089033;28;46645;-75
2022/10/07 11:25:30;;;;;;;1.65;1.27;;;21.10;54.90;;;;;;5089219;28;45352;-76
2022/10/07 11:28:01;;;;;;;1.55;1.38;;;21.20;54.30;;;;;;5089579;28;45311;-75
2022/10/07 11:30:30;;;;;;;1.58;1.33;;;21.20;54.10;;;;;;5090137;28;45340;-76
2022/10/07 11:33:00;;;;;;;1.83;1.35;;;21.30;54.20;;;;;;5089380;28;45325;-76
2022/10/07 11:35:31;;;;;;;2.33;1.50;;;21.40;54.10;;;;;;5089469;28;45273;-75
2022/10/07 11:38:01;;;;;;;2.17;1.60;;;21.40;54.00;;;;;;5089472;28;45135;-75
2022/10/07 11:40:29;;;;;;;3.88;1.42;;;21.50;54.00;;;;;;5089749;28;45335;-75
2022/10/07 11:42:57;;;;;;;2.20;1.60;;;21.50;54.10;;;;;;5088857;28;45484;-75
2022/10/07 11:45:26;;;;;;;1.60;1.50;;;21.60;54.10;;;;;;5089366;28;45194;-74
2022/10/07 11:47:54;;;;;;;2.65;1.55;;;21.60;54.00;;;;;;5089688;28;45340;-74
2022/10/07 11:50:22;;;;;;;3.10;1.50;;;21.70;54.20;;;;;;5090036;28;45249;-75
2022/10/07 11:52:52;;;;;;;1.90;1.45;;;21.70;54.20;;;;;;5089453;28;46341;-75
2022/10/07 11:55:21;;;;;;;1.60;1.33;;;21.80;54.10;;;;;;5089277;28;45344;-75
2022/10/07 11:57:52;;;;;;;2.28;1.38;;;21.80;53.90;;;;;;5089348;28;45280;-76
2022/10/07 12:00:23;;;;;;;1.80;1.65;;;21.80;54.00;;;;;;5089559;28;45437;-75
2022/10/07 12:02:50;;;;;;;2.45;1.40;;;21.70;54.20;;;;;;5089360;28;46351;-76
2022/10/07 12:06:04;;;;;;;1.60;1.50;;;21.70;54.50;;;;;;5089843;28;45213;-75
2022/10/07 12:08:34;;;;;;;3.25;1.65;;;21.60;54.60;;;;;;5082875;28;45200;-77
2022/10/07 12:11:46;;;;;;;2.47;1.50;;;21.70;54.50;;;;;;5089887;28;45480;-76
2022/10/07 12:14:40;;;;;;;2.13;1.50;;;21.70;54.50;;;;;;5089671;28;45318;-75
2022/10/07 12:17:23;;;;;;;1.48;1.38;;;21.80;54.40;;;;;;5086103;28;45193;-75
2022/10/07 12:20:24;;;;;;;1.80;1.50;;;21.90;54.50;;;;;;5089776;28;45222;-75
2022/10/07 12:23:24;;;;;;;1.95;1.50;;;22.00;54.50;;;;;;5072450;28;45273;-74
2022/10/07 12:25:53;;;;;;;2.33;1.30;;;22.10;54.30;;;;;;5090449;28;45212;-75
2022/10/07 12:28:23;;;;;;;2.58;1.45;;;22.10;54.10;;;;;;5090470;28;45330;-75
2022/10/07 12:30:51;;;;;;;2.38;1.63;;;22.20;54.10;;;;;;5092146;28;45182;-75
2022/10/07 12:33:25;;;;;;;1.63;1.48;;;22.20;54.00;;;;;;5089497;28;45326;-75
2022/10/07 12:35:52;;;;;;;4.78;1.70;;;22.30;54.10;;;;;;5089626;28;47301;-75
2022/10/07 12:38:22;;;;;;;1.27;1.17;;;22.30;54.00;;;;;;5089692;28;45350;-75
2022/10/07 12:41:03;;;;;;;1.63;1.50;;;22.30;54.10;;;;;;5088803;28;45245;-73
2022/10/07 12:43:34;;;;;;;1.83;1.45;;;22.30;54.10;;;;;;5088774;28;45299;-73
2022/10/07 12:46:01;;;;;;;2.20;1.75;;;22.40;54.10;;;;;;5088165;28;45552;-73
2022/10/07 12:48:30;;;;;;;1.50;1.40;;;22.40;54.00;;;;;;5089296;28;45327;-72
2022/10/07 12:50:57;;;;;;;1.70;1.60;;;22.40;53.90;;;;;;5089503;28;45412;-72
2022/10/07 12:53:26;;;;;;;1.63;1.52;;;22.50;53.90;;;;;;5088904;28;45177;-72
2022/10/07 12:55:55;;;;;;;1.40;1.30;;;22.50;53.70;;;;;;5088609;28;45425;-73
2022/10/07 13:01:26;;;;;;;1.95;1.60;;;22.60;53.50;;;;;;5086113;28;45183;-73
2022/10/07 13:04:18;;;;;;;1.50;1.40;;;22.60;53.50;;;;;;5089069;28;45189;-73
2022/10/07 13:07:22;;;;;;;1.70;1.60;;;22.70;53.70;;;;;;5088178;28;46347;-72
2022/10/07 13:10:03;;;;;;;2.10;1.60;;;22.70;53.90;;;;;;5091253;28;45429;-73
2022/10/07 13:12:35;;;;;;;1.52;1.40;;;22.70;53.90;;;;;;5089053;28;45230;-73
2022/10/07 13:15:12;;;;;;;1.33;1.20;;;22.80;53.90;;;;;;5088209;28;45459;-73